Time;durP1;ratioP1;P1;durP2;ratioP2;P2;SDS_P1;SDS_P2;PMS_P1;PMS_P2;Temp;Humidity;BMP_temperature;BMP_pressure;BME280_temperature;BME280_humidity;BME280_pressure;Samples;Min_cycle;Max_cycle;Signal;HPM_P1;HPM_P2
2023/10/16 00:01:26;;;;;;;6.40;3.90;;;;;;;13.24;67.05;97467.16;10406757;28;20122;-51
2023/10/16 00:06:24;;;;;;;6.57;4.18;;;;;;;13.10;67.86;97465.63;10401847;28;20071;-51
2023/10/16 00:11:24;;;;;;;7.78;4.50;;;;;;;12.97;69.49;97471.88;10366671;28;20101;-52
2023/10/16 00:16:23;;;;;;;7.32;4.32;;;;;;;12.82;69.86;97491.22;10367260;28;20068;-52
2023/10/16 00:21:24;;;;;;;8.25;4.75;;;;;;;12.68;70.46;97509.63;10366752;28;20353;-50
2023/10/16 00:26:23;;;;;;;6.00;4.00;;;;;;;12.40;70.77;97472.69;10366256;28;20071;-50
2023/10/16 00:31:22;;;;;;;9.40;4.88;;;;;;;12.60;70.38;97503.66;10370270;28;20040;-48
2023/10/16 00:36:21;;;;;;;5.90;3.95;;;;;;;12.62;71.21;97485.41;10369429;28;20140;-52
2023/10/16 00:41:28;;;;;;;6.70;4.38;;;;;;;12.79;71.77;97504.28;10367775;28;20032;-52
2023/10/16 00:46:35;;;;;;;7.03;4.57;;;;;;;12.89;73.15;97516.28;10369926;28;20060;-48
2023/10/16 00:51:40;;;;;;;7.45;4.80;;;;;;;12.94;72.43;97526.63;10369377;28;20086;-51
2023/10/16 00:56:39;;;;;;;6.45;4.32;;;;;;;12.78;72.82;97527.72;10369199;28;20107;-49
2023/10/16 01:01:43;;;;;;;7.40;4.30;;;;;;;12.08;74.25;97454.84;10369134;28;20124;-50
2023/10/16 01:06:44;;;;;;;5.75;3.90;;;;;;;12.55;74.57;97557.50;10377746;28;20075;-49
2023/10/16 01:11:43;;;;;;;7.00;4.45;;;;;;;12.29;75.33;97548.25;10410076;28;20072;-50
2023/10/16 01:16:43;;;;;;;5.53;3.35;;;;;;;12.36;76.19;97584.63;10369371;28;20072;-49
2023/10/16 01:21:42;;;;;;;5.05;3.22;;;;;;;12.24;77.54;97586.44;10367725;28;20060;-50
2023/10/16 01:26:42;;;;;;;6.57;3.45;;;;;;;12.21;78.22;97602.09;10367338;28;20104;-51
2023/10/16 01:31:44;;;;;;;6.38;3.35;;;;;;;12.19;78.73;97596.03;10370673;28;20091;-48
2023/10/16 01:36:45;;;;;;;6.63;3.67;;;;;;;12.30;79.05;97619.41;10372780;28;20072;-48
2023/10/16 01:41:46;;;;;;;6.68;4.13;;;;;;;12.32;79.82;97622.81;10372819;28;20076;-48
2023/10/16 01:46:47;;;;;;;6.93;4.60;;;;;;;12.30;80.38;97645.41;10414367;28;20067;-47
2023/10/16 01:51:48;;;;;;;7.45;4.00;;;;;;;12.39;80.01;97652.25;10412698;28;20534;-47
2023/10/16 01:56:47;;;;;;;5.80;4.18;;;;;;;12.20;80.34;97644.59;10413428;28;20083;-48
2023/10/16 02:01:46;;;;;;;5.78;3.80;;;;;;;12.15;80.27;97654.16;10372716;28;20475;-48
2023/10/16 02:06:48;;;;;;;5.70;3.58;;;;;;;12.33;79.77;97667.94;10382003;28;20051;-48
2023/10/16 02:11:47;;;;;;;5.10;3.58;;;;;;;12.39;79.79;97675.66;10412788;28;20071;-48
2023/10/16 02:16:47;;;;;;;8.02;3.60;;;;;;;12.41;79.87;97673.91;10412432;28;20100;-51
2023/10/16 02:21:46;;;;;;;6.53;3.67;;;;;;;12.45;79.50;97680.81;10412563;28;20067;-50
2023/10/16 02:26:55;;;;;;;6.28;4.57;;;;;;;12.48;79.37;97692.06;10412508;28;20075;-50
2023/10/16 02:31:54;;;;;;;4.55;3.47;;;;;;;12.49;78.10;97679.94;10411029;28;20072;-49
2023/10/16 02:36:56;;;;;;;4.55;3.35;;;;;;;12.51;77.64;97670.38;10409783;28;20028;-51
2023/10/16 02:41:55;;;;;;;5.78;3.75;;;;;;;12.54;77.06;97696.34;10408525;28;20491;-47
2023/10/16 02:46:56;;;;;;;4.70;3.28;;;;;;;12.48;75.91;97696.41;10409897;28;20068;-51
2023/10/16 02:51:55;;;;;;;6.15;3.67;;;;;;;12.43;75.90;97719.00;10408934;28;20087;-49
2023/10/16 02:56:59;;;;;;;4.78;3.53;;;;;;;12.46;75.27;97714.66;10409217;28;20104;-49
2023/10/16 03:01:58;;;;;;;4.82;3.08;;;;;;;12.30;73.86;97731.28;10408086;28;20068;-51
2023/10/16 03:06:57;;;;;;;4.43;3.28;;;;;;;12.21;72.35;97760.78;10398118;28;20049;-48
2023/10/16 03:12:04;;;;;;;3.15;2.70;;;;;;;12.00;70.67;97729.75;10366906;28;20064;-47
2023/10/16 03:17:09;;;;;;;5.53;3.08;;;;;;;11.89;69.51;97733.25;10366954;28;20068;-51
2023/10/16 03:22:11;;;;;;;4.65;3.08;;;;;;;11.84;70.64;97754.97;10407686;28;20080;-48
2023/10/16 03:27:10;;;;;;;5.30;3.35;;;;;;;11.80;69.03;97769.72;10408345;28;20075;-48
2023/10/16 03:32:09;;;;;;;3.35;2.60;;;;;;;11.61;64.44;97757.69;10370394;28;1180875;-47
2023/10/16 03:37:10;;;;;;;4.22;3.17;;;;;;;11.57;63.92;97766.38;10413529;28;20108;-50
2023/10/16 03:42:09;;;;;;;5.32;3.00;;;;;;;11.40;62.10;97774.25;10412216;28;20056;-51
2023/10/16 03:47:09;;;;;;;3.78;2.60;;;;;;;11.40;60.98;97795.91;10413091;28;20182;-49
2023/10/16 03:52:08;;;;;;;5.57;3.28;;;;;;;11.34;60.80;97798.53;10411418;28;20075;-50
2023/10/16 03:57:11;;;;;;;3.80;2.83;;;;;;;11.35;60.00;97802.84;10412420;28;20491;-50
2023/10/16 04:02:17;;;;;;;5.57;2.75;;;;;;;11.43;60.79;97808.00;10411096;28;20072;-49
2023/10/16 04:07:16;;;;;;;8.02;3.15;;;;;;;11.51;58.93;97774.22;10399620;28;20064;-48
2023/10/16 04:12:20;;;;;;;4.20;3.10;;;;;;;11.46;58.19;97789.84;10371015;28;20056;-51
2023/10/16 04:17:23;;;;;;;5.78;3.40;;;;;;;11.32;57.50;97787.28;10370221;28;20060;-48
2023/10/16 04:22:25;;;;;;;5.30;2.90;;;;;;;11.51;58.25;97815.78;10367947;28;20453;-47
2023/10/16 04:27:29;;;;;;;12.35;3.67;;;;;;;11.56;58.43;97809.69;10409009;28;20067;-47
2023/10/16 04:37:49;;;;;;;4.75;3.30;;;;;;;11.72;58.07;97826.09;10406215;28;20550;-50
2023/10/16 04:43:37;;;;;;;4.40;3.22;;;;;;;11.80;58.51;97841.66;10389135;28;20063;-50
2023/10/16 04:48:23;;;;;;;6.32;3.33;;;;;;;11.67;58.10;97872.06;10374412;28;20496;-49
2023/10/16 04:53:22;;;;;;;14.63;8.30;;;;;;;11.76;59.42;97886.72;10365048;28;20127;-51
2023/10/16 05:03:23;;;;;;;15.27;9.48;;;;;;;11.91;61.63;97907.47;10381301;28;20064;-49
2023/10/16 05:13:43;;;;;;;24.52;14.27;;;;;;;11.83;62.67;97930.94;10384514;28;20476;-50
2023/10/16 05:18:51;;;;;;;15.10;9.07;;;;;;;11.50;64.74;97956.97;10366773;28;20068;-51
2023/10/16 06:16:55;;;;;;;9.27;4.95;;;;;;;12.66;56.86;98024.28;10415662;28;20063;-51
2023/10/16 06:21:57;;;;;;;;;;;;;;;12.81;55.20;98038.94;10418216;28;20558;-49
2023/10/16 06:26:56;;;;;;;6.25;3.80;;;;;;;12.97;54.20;98031.91;10418291;28;19954;-49
2023/10/16 06:31:58;;;;;;;9.60;5.13;;;;;;;13.00;53.03;98039.72;10417267;28;20076;-48
2023/10/16 06:36:57;;;;;;;8.70;4.60;;;;;;;12.95;51.87;98051.88;10416931;28;20068;-48
2023/10/16 06:41:56;;;;;;;4.93;3.47;;;;;;;12.99;49.68;98037.97;10405579;28;20103;-49
2023/10/16 06:46:58;;;;;;;9.10;4.18;;;;;;;13.07;46.92;98054.44;10375732;28;20124;-52
2023/10/16 06:51:57;;;;;;;9.13;3.83;;;;;;;13.20;45.15;98067.38;10404972;28;20063;-49
2023/10/16 06:56:59;;;;;;;;;;;;;;;12.99;44.36;98066.63;10392435;28;20649;-50
2023/10/16 07:01:59;;;;;;;5.13;2.22;;;;;;;12.95;40.20;98077.94;10411956;28;19962;-49
2023/10/16 07:06:58;;;;;;;3.28;2.40;;;;;;;12.80;40.67;98052.84;10391499;28;20060;-50
2023/10/16 07:12:02;;;;;;;8.65;5.20;;;;;;;12.92;37.00;98071.00;10399300;28;20075;-51
2023/10/16 07:17:03;;;;;;;5.68;2.60;;;;;;;12.89;36.63;98083.19;10390477;28;20072;-52
2023/10/16 07:22:10;;;;;;;3.42;1.95;;;;;;;12.81;36.31;98084.97;10382058;28;20071;-50
2023/10/16 07:27:14;;;;;;;3.75;2.10;;;;;;;12.67;33.41;98082.41;10411980;28;20064;-50
2023/10/16 07:32:13;;;;;;;3.15;1.90;;;;;;;12.57;33.56;98084.19;10414798;28;20071;-50
2023/10/16 07:37:13;;;;;;;4.22;3.10;;;;;;;12.73;32.83;98075.44;10413617;28;20131;-49
2023/10/16 07:42:12;;;;;;;4.43;2.20;;;;;;;12.82;32.76;98073.69;10414889;28;20064;-50
2023/10/16 07:47:11;;;;;;;3.95;2.33;;;;;;;12.78;33.09;98072.81;10415721;28;20115;-49
2023/10/16 07:52:10;;;;;;;3.80;1.83;;;;;;;12.93;33.01;98071.91;10407717;28;20032;-50
2023/10/16 07:57:09;;;;;;;3.95;2.00;;;;;;;13.37;34.39;98075.94;10390219;28;20049;-49
2023/10/16 08:02:08;;;;;;;5.10;1.90;;;;;;;13.38;32.93;98071.63;10398751;28;20072;-48
2023/10/16 08:07:19;;;;;;;3.22;1.83;;;;;;;13.35;32.17;98080.28;10407269;28;20052;-50
2023/10/16 08:12:18;;;;;;;2.08;1.70;;;;;;;13.34;31.15;98076.84;10401472;28;20097;-49
2023/10/16 08:17:17;;;;;;;;;;;;;;;12.90;31.26;98087.53;10395304;28;20072;-49
2023/10/16 08:22:16;;;;;;;4.75;1.98;;;;;;;13.16;31.81;98082.16;10410902;28;19952;-50
2023/10/16 08:27:39;;;;;;;4.40;1.45;;;;;;;13.45;30.77;98083.72;10407021;28;20064;-47
2023/10/16 08:32:53;;;;;;;3.20;1.30;;;;;;;13.76;29.92;98076.56;10402858;28;20075;-49
2023/10/16 08:37:57;;;;;;;2.35;1.40;;;;;;;13.80;30.59;98085.19;10387924;28;20076;-47
2023/10/16 08:43:18;;;;;;;2.42;1.40;;;;;;;13.74;29.89;98075.69;10413517;28;20075;-47
2023/10/16 08:48:19;;;;;;;12.52;7.93;;;;;;;13.93;28.59;98077.25;10413948;28;20071;-49
2023/10/16 08:53:31;;;;;;;1.40;1.30;;;;;;;12.65;28.41;97907.09;10412217;28;20091;-47
2023/10/16 08:58:46;;;;;;;3.42;1.60;;;;;;;13.98;28.50;98070.28;10413173;28;20080;-48
2023/10/16 09:03:54;;;;;;;5.38;1.75;;;;;;;13.82;29.83;98058.25;10411266;28;20068;-51
2023/10/16 09:08:54;;;;;;;6.65;3.33;;;;;;;14.27;29.44;98082.16;10400810;28;20474;-48
2023/10/16 09:13:53;;;;;;;6.47;3.75;;;;;;;14.15;29.90;98077.06;10390364;28;20055;-48
2023/10/16 09:18:53;;;;;;;4.20;2.42;;;;;;;14.28;30.36;98065.59;10414490;28;20095;-48
2023/10/16 09:23:52;;;;;;;4.75;1.88;;;;;;;14.14;30.85;98073.56;10412285;28;20056;-47
2023/10/16 09:28:53;;;;;;;;;;;;;;;14.30;31.35;98081.25;10406885;28;20064;-50
2023/10/16 09:33:52;;;;;;;3.75;2.13;;;;;;;14.35;30.76;98087.28;10403524;28;20027;-47
2023/10/16 09:38:51;;;;;;;;;;;;;;;14.31;30.69;98083.88;10398807;28;20071;-48
2023/10/16 09:49:09;;;;;;;6.47;2.30;;;;;;;14.05;29.99;98083.25;10400887;28;20063;-51
2023/10/16 09:54:09;;;;;;;4.43;2.40;;;;;;;14.11;30.19;98059.72;10401023;28;20061;-51
2023/10/16 09:59:23;;;;;;;7.60;3.28;;;;;;;13.95;31.28;98059.84;10405980;28;20142;-48
2023/10/16 10:04:26;;;;;;;2.55;1.98;;;;;;;14.04;31.20;98058.91;10400342;28;20068;-48
2023/10/16 10:09:44;;;;;;;3.95;2.33;;;;;;;14.30;30.78;98061.22;10413560;28;20472;-50
2023/10/16 10:14:50;;;;;;;5.28;2.80;;;;;;;14.36;30.95;98053.34;10418647;28;20083;-50
2023/10/16 10:19:54;;;;;;;11.98;3.20;;;;;;;14.27;30.60;98066.50;10418797;28;20056;-50
2023/10/16 10:25:16;;;;;;;4.30;2.58;;;;;;;14.08;30.64;98039.72;10407123;28;20060;-49
2023/10/16 10:30:25;;;;;;;4.78;2.67;;;;;;;14.11;32.29;98054.50;10414409;28;20056;-49
2023/10/16 10:35:28;;;;;;;4.10;2.25;;;;;;;14.08;31.79;98018.00;10415574;28;20072;-48
2023/10/16 10:40:33;;;;;;;7.28;3.17;;;;;;;14.17;31.08;98033.53;10402963;28;20132;-50
2023/10/16 10:45:34;;;;;;;14.25;3.17;;;;;;;14.13;31.10;97993.56;10416896;28;20483;-50
2023/10/16 10:50:38;;;;;;;5.03;2.53;;;;;;;14.25;30.57;98005.59;10417874;28;20791;-48
2023/10/16 10:55:51;;;;;;;8.77;4.40;;;;;;;14.35;32.80;98035.94;10404975;28;20099;-47
2023/10/16 11:00:50;;;;;;;3.95;2.70;;;;;;;14.68;32.27;98019.88;10375359;28;20060;-47
2023/10/16 11:05:50;;;;;;;9.70;3.13;;;;;;;14.80;31.96;98020.63;10407383;28;20068;-47
2023/10/16 11:10:51;;;;;;;5.97;2.75;;;;;;;14.45;31.63;98021.00;10417919;28;20071;-49
2023/10/16 11:15:56;;;;;;;15.98;3.40;;;;;;;14.58;31.80;98021.75;10416925;28;20056;-48
2023/10/16 11:21:04;;;;;;;4.60;2.72;;;;;;;14.59;31.09;98020.84;10417373;28;20075;-48
2023/10/16 11:26:05;;;;;;;6.32;2.78;;;;;;;14.63;29.75;97997.28;10416391;28;20059;-49
2023/10/16 11:31:10;;;;;;;5.18;2.60;;;;;;;14.40;29.64;98013.28;10377895;28;20069;-47
2023/10/16 11:36:09;;;;;;;4.93;2.33;;;;;;;14.18;29.85;97975.25;10418207;28;20519;-51
2023/10/16 11:41:16;;;;;;;;;;;;;;;14.62;29.12;98005.16;10415732;28;20512;-50
2023/10/16 11:51:35;;;;;;;3.17;2.72;;;;;;;14.72;27.85;98008.53;10412650;28;20056;-48
2023/10/16 11:56:34;;;;;;;5.88;2.78;;;;;;;14.87;29.85;98017.91;10413545;28;20436;-50
2023/10/16 12:01:33;;;;;;;8.43;2.53;;;;;;;14.74;28.93;98014.59;10408773;28;20061;-50
2023/10/16 12:06:33;;;;;;;;;;;;;;;14.92;29.41;98029.16;10377782;28;20125;-48
2023/10/16 12:11:31;;;;;;;4.23;2.97;;;;;;;15.08;30.21;98009.75;10394657;28;20350;-51
2023/10/16 12:16:30;;;;;;;;;;;;;;;15.15;28.96;98000.06;10417471;28;20523;-49
2023/10/16 12:21:29;;;;;;;5.68;2.90;;;;;;;15.07;28.97;98010.66;10417405;28;20479;-49
2023/10/16 12:26:28;;;;;;;;;;;;;;;14.93;28.79;98010.84;10416743;28;20135;-50
2023/10/16 12:31:27;;;;;;;6.88;2.90;;;;;;;14.98;29.01;98013.38;10412403;28;19916;-50
2023/10/16 12:36:26;;;;;;;5.78;2.92;;;;;;;15.20;29.13;97993.91;10413781;28;20063;-48
2023/10/16 12:41:26;;;;;;;4.65;2.85;;;;;;;15.34;29.06;97995.41;10412533;28;20060;-48
2023/10/16 12:46:27;;;;;;;4.65;3.17;;;;;;;15.23;29.51;97996.44;10412563;28;20056;-47
2023/10/16 12:51:26;;;;;;;3.42;2.65;;;;;;;14.97;29.02;98004.69;10411651;28;20056;-47
2023/10/16 12:56:25;;;;;;;;;;;;;;;15.12;28.43;97994.91;10413258;28;20115;-48
2023/10/16 13:01:24;;;;;;;6.15;3.50;;;;;;;15.14;29.09;97999.22;10413249;28;19955;-50
2023/10/16 13:06:23;;;;;;;;;;;;;;;14.95;29.39;98003.84;10413518;28;20059;-50
2023/10/16 13:11:24;;;;;;;3.50;2.58;;;;;;;15.11;28.69;97994.03;10413482;28;20409;-47
2023/10/16 13:16:26;;;;;;;;;;;;;;;15.14;27.97;97991.38;10413045;28;20486;-50
2023/10/16 13:21:33;;;;;;;5.72;2.80;;;;;;;15.04;28.23;97995.88;10411809;28;19959;-48
2023/10/16 13:26:36;;;;;;;6.15;3.35;;;;;;;14.97;28.71;98003.84;10417713;28;20482;-49
2023/10/16 13:31:45;;;;;;;5.13;2.85;;;;;;;14.92;29.38;97998.69;10419466;28;20456;-51
2023/10/16 13:37:01;;;;;;;4.72;3.58;;;;;;;15.17;29.13;97993.91;10420749;28;20067;-49
2023/10/16 13:42:00;;;;;;;5.57;3.50;;;;;;;15.09;28.69;98006.25;10420008;28;20085;-50
2023/10/16 13:46:59;;;;;;;;;;;;;;;14.91;28.66;97993.47;10419086;28;20463;-50
2023/10/16 13:51:58;;;;;;;4.33;2.60;;;;;;;14.97;28.45;97996.84;10419550;28;19961;-47
2023/10/16 13:56:57;;;;;;;4.88;2.83;;;;;;;14.91;28.24;97989.09;10420636;28;20071;-48
2023/10/16 14:01:58;;;;;;;;;;;;;;;15.00;27.83;97995.94;10420742;28;20071;-50
2023/10/16 14:06:56;;;;;;;2.53;2.03;;;;;;;14.82;26.76;98003.16;10419402;28;19944;-50
2023/10/16 14:11:58;;;;;;;;;;;;;;;14.80;26.97;97994.50;10419688;28;20017;-50
2023/10/16 14:17:03;;;;;;;5.32;2.47;;;;;;;14.85;27.39;97985.69;10418171;28;19947;-49
2023/10/16 14:22:06;;;;;;;6.60;3.13;;;;;;;14.88;27.32;97988.28;10419109;28;20068;-51
2023/10/16 14:27:05;;;;;;;13.48;3.65;;;;;;;14.83;28.13;97968.31;10419000;28;20067;-50
2023/10/16 14:32:04;;;;;;;;;;;;;;;14.89;28.26;97992.63;10419204;28;20047;-51
2023/10/16 14:37:05;;;;;;;8.50;3.50;;;;;;;14.91;28.34;97990.84;10416493;28;20446;-50
2023/10/16 14:42:05;;;;;;;4.07;2.65;;;;;;;14.85;28.06;98007.50;10405192;28;20131;-50
2023/10/16 14:47:09;;;;;;;10.02;4.03;;;;;;;14.69;28.84;98000.72;10372070;28;20115;-49
2023/10/16 14:52:08;;;;;;;11.27;3.17;;;;;;;14.72;28.86;98005.94;10369022;28;20060;-51
2023/10/16 14:57:07;;;;;;;16.38;7.82;;;;;;;14.53;28.89;98011.34;10370919;28;20060;-51
2023/10/16 15:02:07;;;;;;;;;;;;;;;14.38;28.88;98012.41;10377796;28;20116;-48
2023/10/16 15:07:07;;;;;;;;;;;;;;;14.43;28.80;98021.91;10411802;28;20420;-50
2023/10/16 15:12:07;;;;;;;;;;;;;;;14.40;29.09;98028.03;10383972;28;20003;-49
2023/10/16 15:17:06;;;;;;;16.30;6.45;;;;;;;14.28;29.15;98031.66;10383485;28;20012;-51
2023/10/16 15:22:05;;;;;;;;;;;;;;;14.22;29.60;98042.19;10402179;28;20143;-49
2023/10/16 15:27:04;;;;;;;9.93;5.00;;;;;;;13.93;29.61;98042.47;10410587;28;20003;-49
2023/10/16 15:32:07;;;;;;;20.35;11.50;;;;;;;13.82;29.39;98053.03;10408727;28;20058;-49
2023/10/16 15:37:08;;;;;;;14.98;7.63;;;;;;;13.69;29.93;98056.63;10370664;28;20053;-48
2023/10/16 15:42:08;;;;;;;11.27;5.57;;;;;;;13.40;29.97;98028.13;10370093;28;20116;-49
2023/10/16 15:47:07;;;;;;;31.42;15.73;;;;;;;13.42;30.45;98068.97;10370299;28;20079;-50
2023/10/16 15:52:06;;;;;;;28.92;15.45;;;;;;;13.25;30.82;98071.69;10369655;28;20021;-50
2023/10/16 15:57:05;;;;;;;33.65;16.15;;;;;;;13.10;31.94;98085.69;10368252;28;20033;-50
2023/10/16 16:02:05;;;;;;;15.80;8.55;;;;;;;12.89;32.89;98093.63;10407649;28;20082;-51
2023/10/16 16:07:04;;;;;;;11.15;6.18;;;;;;;12.66;34.49;98110.19;10408553;28;20079;-51
2023/10/16 16:12:06;;;;;;;7.90;4.63;;;;;;;12.23;35.62;98084.28;10408934;28;20422;-51
2023/10/16 16:17:05;;;;;;;6.70;4.30;;;;;;;12.18;36.44;98119.84;10406422;28;20056;-50
2023/10/16 16:22:10;;;;;;;5.97;3.58;;;;;;;11.96;36.57;98129.38;10406365;28;20454;-49
2023/10/16 16:27:09;;;;;;;8.23;4.20;;;;;;;11.76;36.95;98126.81;10408056;28;20555;-48
2023/10/16 16:32:09;;;;;;;7.70;3.92;;;;;;;11.57;36.90;98125.03;10368424;28;20498;-48
2023/10/16 16:37:08;;;;;;;6.47;3.70;;;;;;;11.26;37.28;98114.59;10367809;28;20512;-51
2023/10/16 16:42:09;;;;;;;5.82;3.58;;;;;;;11.07;38.39;98128.41;10368058;28;20519;-49
2023/10/16 16:47:09;;;;;;;6.57;3.20;;;;;;;10.91;37.64;98143.94;10368424;28;20075;-49
2023/10/16 16:52:08;;;;;;;7.70;4.05;;;;;;;10.81;38.49;98144.75;10366226;28;20064;-50
2023/10/16 16:57:07;;;;;;;5.90;3.35;;;;;;;10.69;38.28;98142.09;10408382;28;20032;-51
2023/10/16 17:02:09;;;;;;;7.15;3.70;;;;;;;10.58;39.23;98140.28;10407179;28;20063;-50
2023/10/16 17:07:08;;;;;;;7.80;4.10;;;;;;;10.41;39.29;98141.94;10409566;28;20075;-50
2023/10/16 17:12:08;;;;;;;7.03;4.00;;;;;;;10.23;40.08;98147.88;10408990;28;20477;-49
2023/10/16 17:17:09;;;;;;;7.60;4.28;;;;;;;10.10;40.80;98154.72;10406385;28;20460;-49
2023/10/16 17:22:10;;;;;;;7.82;5.57;;;;;;;10.00;41.17;98152.88;10408034;28;20083;-47
2023/10/16 17:27:09;;;;;;;7.65;4.88;;;;;;;9.81;41.95;98163.97;10407639;28;20609;-47
2023/10/16 17:32:08;;;;;;;9.23;4.68;;;;;;;9.62;42.46;98162.94;10403700;28;20503;-47
2023/10/16 17:37:07;;;;;;;7.80;4.47;;;;;;;9.48;42.65;98160.22;10402375;28;20036;-50
2023/10/16 17:42:06;;;;;;;;;;;;;;;9.36;43.84;98153.19;10364624;28;20049;-48
2023/10/16 17:47:05;;;;;;;24.05;14.35;;;;;;;9.24;43.89;98158.22;10363242;28;19966;-48
2023/10/16 17:52:07;;;;;;;18.48;11.57;;;;;;;9.04;44.38;98164.03;10362994;28;20112;-48
2023/10/16 17:57:06;;;;;;;17.40;9.18;;;;;;;8.97;44.67;98169.97;10364406;28;20520;-48
2023/10/16 18:02:10;;;;;;;14.85;9.82;;;;;;;8.86;44.77;98175.03;10363125;28;20029;-49
2023/10/16 18:07:09;;;;;;;18.45;9.35;;;;;;;8.70;45.67;98157.59;10363323;28;20072;-49
2023/10/16 18:12:08;;;;;;;46.65;24.00;;;;;;;8.51;45.67;98147.00;10408201;28;20028;-48
2023/10/16 18:17:09;;;;;;;32.38;16.40;;;;;;;8.57;45.83;98181.53;10411376;28;20067;-48
2023/10/16 18:22:08;;;;;;;17.52;10.23;;;;;;;8.47;46.64;98173.66;10377181;28;20620;-51
2023/10/16 18:27:08;;;;;;;12.10;7.75;;;;;;;8.35;46.83;98170.03;10412126;28;20048;-48
2023/10/16 18:32:09;;;;;;;14.43;7.72;;;;;;;8.23;46.85;98168.16;10409847;28;20064;-49
2023/10/16 18:37:09;;;;;;;15.73;8.63;;;;;;;7.92;47.17;98135.78;10411060;28;20091;-48
2023/10/16 18:42:08;;;;;;;14.23;6.65;;;;;;;8.16;47.27;98179.25;10410471;28;20067;-51
2023/10/16 18:47:08;;;;;;;14.43;6.60;;;;;;;8.03;49.00;98179.03;10408939;28;20129;-48
2023/10/16 18:52:08;;;;;;;14.65;7.55;;;;;;;8.02;48.41;98177.31;10410923;28;20059;-50
2023/10/16 18:57:09;;;;;;;18.55;7.93;;;;;;;8.06;48.90;98185.97;10411234;28;20485;-49
2023/10/16 19:02:09;;;;;;;14.52;7.68;;;;;;;8.03;49.60;98191.09;10409451;28;20123;-49
2023/10/16 19:07:08;;;;;;;11.98;7.35;;;;;;;7.96;49.60;98192.69;10410034;28;20060;-48
2023/10/16 19:12:08;;;;;;;;;;;;;;;7.92;49.50;98201.28;10410359;28;20067;-48
2023/10/16 19:17:10;;;;;;;15.82;7.03;;;;;;;7.93;50.42;98210.75;10386697;28;19958;-48
2023/10/16 19:22:09;;;;;;;11.63;6.15;;;;;;;7.96;49.89;98223.72;10368086;28;20068;-48
2023/10/16 19:27:08;;;;;;;13.93;6.90;;;;;;;7.87;50.04;98223.56;10369627;28;20056;-52
2023/10/16 19:32:07;;;;;;;9.65;5.85;;;;;;;7.68;49.73;98214.59;10370882;28;20064;-50
2023/10/16 19:37:06;;;;;;;12.43;5.93;;;;;;;7.65;49.83;98233.50;10371889;28;20123;-48
2023/10/16 19:42:05;;;;;;;12.45;5.97;;;;;;;7.49;50.48;98228.91;10372468;28;20060;-50
2023/10/16 19:47:05;;;;;;;26.63;13.95;;;;;;;7.48;50.63;98231.47;10370761;28;20102;-49
2023/10/16 19:52:07;;;;;;;30.83;20.17;;;;;;;7.52;51.87;98230.66;10369201;28;20069;-48
2023/10/16 19:57:06;;;;;;;27.55;15.27;;;;;;;7.52;51.39;98234.16;10371256;28;20068;-48
2023/10/16 20:02:06;;;;;;;25.55;13.52;;;;;;;7.47;52.15;98232.31;10408697;28;20075;-48
2023/10/16 20:07:06;;;;;;;23.38;11.30;;;;;;;7.44;52.43;98225.38;10369972;28;20064;-49
2023/10/16 20:12:09;;;;;;;17.38;10.32;;;;;;;7.41;52.48;98233.06;10370345;28;20053;-51
2023/10/16 20:17:10;;;;;;;19.35;10.63;;;;;;;7.39;52.41;98239.88;10369431;28;20068;-50
2023/10/16 20:22:15;;;;;;;17.77;10.25;;;;;;;7.40;52.36;98251.97;10370165;28;20526;-49
2023/10/16 20:27:15;;;;;;;18.20;10.20;;;;;;;7.35;51.63;98245.81;10409735;28;20570;-51
2023/10/16 20:32:15;;;;;;;18.17;9.77;;;;;;;7.34;52.52;98249.25;10406251;28;20076;-49
2023/10/16 20:37:14;;;;;;;17.98;9.43;;;;;;;7.36;52.37;98255.31;10405803;28;20068;-49
2023/10/16 20:42:13;;;;;;;19.58;10.18;;;;;;;7.34;51.86;98257.00;10405417;28;20439;-50
2023/10/16 20:47:12;;;;;;;15.10;9.68;;;;;;;7.25;51.45;98258.53;10406241;28;20083;-49
2023/10/16 20:52:12;;;;;;;14.50;8.05;;;;;;;7.15;52.78;98254.03;10406611;28;20025;-50
2023/10/16 20:57:11;;;;;;;12.73;7.85;;;;;;;7.08;52.29;98265.06;10405853;28;20075;-49
2023/10/16 21:02:11;;;;;;;13.95;8.38;;;;;;;6.95;53.14;98257.91;10406442;28;20132;-50
2023/10/16 21:07:10;;;;;;;15.07;8.50;;;;;;;6.97;53.38;98269.13;10405702;28;20472;-50
2023/10/16 21:12:10;;;;;;;20.58;9.40;;;;;;;6.85;53.84;98261.13;10405751;28;20506;-51
2023/10/16 21:17:10;;;;;;;16.23;9.07;;;;;;;6.75;53.82;98276.41;10405453;28;20068;-48
2023/10/16 21:22:09;;;;;;;17.73;9.60;;;;;;;6.73;53.81;98266.91;10405104;28;20080;-50
2023/10/16 21:27:08;;;;;;;;;;;;;;;6.66;54.36;98275.34;10404980;28;20068;-51
2023/10/16 21:32:08;;;;;;;15.75;9.15;;;;;;;6.37;54.21;98209.38;10405334;28;20422;-53
2023/10/16 21:37:09;;;;;;;17.25;10.20;;;;;;;6.68;54.43;98266.78;10363907;28;20441;-48
2023/10/16 21:42:10;;;;;;;17.23;8.85;;;;;;;6.64;54.50;98270.13;10363807;28;20168;-50
2023/10/16 21:47:10;;;;;;;19.63;10.80;;;;;;;6.58;54.83;98251.94;10367486;28;20092;-46
2023/10/16 21:52:12;;;;;;;21.63;11.60;;;;;;;6.52;54.86;98257.81;10413032;28;20107;-48
2023/10/16 21:57:15;;;;;;;19.17;11.13;;;;;;;6.44;55.38;98259.34;10413100;28;20064;-46
2023/10/16 22:02:15;;;;;;;16.95;9.52;;;;;;;6.40;55.05;98263.56;10412687;28;20063;-48
2023/10/16 22:07:14;;;;;;;18.25;9.75;;;;;;;6.37;55.06;98265.19;10412746;28;20068;-51
2023/10/16 22:12:14;;;;;;;14.00;8.25;;;;;;;6.16;55.25;98247.50;10411871;28;20039;-51
2023/10/16 22:17:13;;;;;;;13.82;7.78;;;;;;;6.18;56.04;98269.03;10411188;28;20067;-49
2023/10/16 22:22:12;;;;;;;14.05;8.18;;;;;;;5.93;55.50;98270.09;10411721;28;20036;-49
2023/10/16 22:27:15;;;;;;;13.48;7.93;;;;;;;5.76;55.94;98267.09;10412624;28;20075;-49
2023/10/16 22:32:15;;;;;;;14.52;6.88;;;;;;;5.67;55.97;98267.75;10415370;28;20068;-50
2023/10/16 22:37:14;;;;;;;11.80;7.00;;;;;;;5.51;56.22;98266.47;10374099;28;20080;-50
2023/10/16 22:42:13;;;;;;;12.98;7.70;;;;;;;4.95;56.65;98187.69;10373499;28;20112;-48
2023/10/16 22:47:13;;;;;;;17.05;9.10;;;;;;;5.22;57.40;98251.91;10374141;28;20060;-47
2023/10/16 22:52:14;;;;;;;19.75;9.95;;;;;;;5.23;57.45;98271.69;10372807;28;20502;-48
2023/10/16 22:57:14;;;;;;;18.73;10.48;;;;;;;5.20;58.26;98261.28;10372258;28;20068;-49
2023/10/16 23:02:13;;;;;;;20.55;12.82;;;;;;;5.06;59.33;98260.88;10373162;28;20049;-49
2023/10/16 23:07:12;;;;;;;20.25;12.05;;;;;;;4.88;59.05;98225.22;10372446;28;20068;-51
2023/10/16 23:12:14;;;;;;;19.25;11.57;;;;;;;5.03;59.69;98251.38;10372778;28;20104;-49
2023/10/16 23:17:21;;;;;;;15.10;8.23;;;;;;;5.00;59.64;98242.72;10412728;28;20059;-48
2023/10/16 23:22:20;;;;;;;11.70;7.68;;;;;;;3.98;59.77;98075.22;10412846;28;20952;-49
2023/10/16 23:27:19;;;;;;;15.95;8.05;;;;;;;4.93;60.60;98244.22;10411417;28;20770;-48
2023/10/16 23:32:18;;;;;;;16.48;7.97;;;;;;;4.89;60.45;98242.38;10409532;28;20578;-48
2023/10/16 23:37:20;;;;;;;15.25;9.15;;;;;;;4.82;61.09;98243.00;10368359;28;20598;-50
2023/10/16 23:42:19;;;;;;;21.23;10.07;;;;;;;4.79;61.19;98240.38;10367275;28;20075;-50
2023/10/16 23:47:21;;;;;;;20.08;12.27;;;;;;;4.79;61.38;98228.38;10368006;28;20123;-49
2023/10/16 23:52:23;;;;;;;21.70;10.80;;;;;;;4.76;61.30;98236.00;10367943;28;20060;-47
2023/10/16 23:57:27;;;;;;;18.10;9.38;;;;;;;4.36;61.45;98173.13;10368360;28;20072;-47
